createdAt,value
2018-05-21T00:01:54.013Z,87.99
2018-05-21T00:04:21.581Z,88.53
2018-05-21T00:06:49.113Z,89.38
2018-05-21T00:09:16.737Z,88.08
2018-05-21T00:11:44.290Z,88.59
2018-05-21T00:14:11.839Z,91.78
2018-05-21T00:16:39.398Z,93.74
2018-05-21T00:19:06.997Z,93.42
2018-05-21T00:21:34.546Z,94.40
2018-05-21T00:24:02.101Z,94.55
2018-05-21T00:26:29.662Z,92.86
2018-05-21T00:28:57.906Z,94.24
2018-05-21T00:31:25.511Z,94.35
2018-05-21T00:33:53.061Z,94.22
2018-05-21T00:36:20.713Z,93.31
2018-05-21T00:38:48.272Z,93.87
2018-05-21T00:41:15.867Z,94.91
2018-05-21T00:43:43.417Z,94.74
2018-05-21T00:46:10.969Z,94.43
2018-05-21T00:48:38.534Z,94.62
2018-05-21T00:51:06.179Z,94.05
2018-05-21T00:53:33.727Z,93.55
2018-05-21T00:56:01.282Z,92.79
2018-05-21T00:58:28.848Z,93.49
2018-05-21T01:00:56.433Z,93.18
2018-05-21T01:03:23.986Z,93.01
2018-05-21T01:05:51.568Z,93.18
2018-05-21T01:08:19.156Z,93.37
2018-05-21T01:10:46.748Z,92.47
2018-05-21T01:13:14.293Z,91.36
2018-05-21T01:15:41.959Z,90.14
2018-05-21T01:18:09.425Z,89.56
2018-05-21T01:20:36.978Z,89.75
2018-05-21T01:23:04.499Z,88.45
2018-05-21T01:25:32.156Z,88.41
2018-05-21T01:27:59.789Z,88.12
2018-05-21T01:30:28.085Z,87.91
2018-05-21T01:32:55.715Z,88.27
2018-05-21T01:35:23.290Z,87.93
2018-05-21T01:37:50.822Z,88.93
2018-05-21T01:40:18.461Z,88.46
2018-05-21T01:42:45.921Z,88.01
2018-05-21T01:45:13.502Z,87.06
2018-05-21T01:47:41.124Z,87.67
2018-05-21T01:50:08.631Z,90.43
2018-05-21T01:52:36.185Z,90.27
2018-05-21T01:55:03.733Z,91.46
2018-05-21T01:57:31.300Z,90.88
2018-05-21T01:59:58.859Z,91.11
2018-05-21T02:02:26.416Z,93.00
2018-05-21T02:04:53.945Z,94.44
2018-05-21T02:07:21.490Z,93.41
2018-05-21T02:09:49.014Z,93.31
2018-05-21T02:12:16.656Z,93.66
2018-05-21T02:14:44.214Z,93.57
2018-05-21T02:17:11.778Z,95.07
2018-05-21T02:19:39.293Z,94.31
2018-05-21T02:22:06.857Z,94.99
2018-05-21T02:24:34.386Z,95.92
2018-05-21T02:27:02.031Z,96.94
2018-05-21T02:29:29.512Z,97.49
2018-05-21T02:31:57.069Z,97.23
2018-05-21T02:34:24.596Z,96.31
2018-05-21T02:36:52.153Z,97.19
2018-05-21T02:39:19.764Z,96.31
2018-05-21T02:41:47.301Z,96.56
2018-05-21T02:44:14.884Z,95.34
2018-05-21T02:46:42.431Z,95.36
2018-05-21T02:49:10.045Z,96.24
2018-05-21T02:51:37.582Z,97.70
2018-05-21T02:54:05.281Z,96.13
2018-05-21T02:56:32.836Z,96.48
2018-05-21T02:59:00.390Z,95.48
2018-05-21T03:01:28.765Z,94.42
2018-05-21T03:03:56.323Z,93.97
2018-05-21T03:06:23.995Z,93.76
2018-05-21T03:08:51.527Z,93.71
2018-05-21T03:11:19.104Z,94.13
2018-05-21T03:13:46.625Z,95.26
2018-05-21T03:16:14.182Z,95.91
2018-05-21T03:18:41.706Z,95.79
2018-05-21T03:21:09.227Z,96.59
2018-05-21T03:23:36.786Z,94.84
2018-05-21T03:26:04.307Z,95.24
2018-05-21T03:28:31.918Z,96.13
2018-05-21T03:30:59.477Z,95.59
2018-05-21T03:33:27.141Z,96.47
2018-05-21T03:35:54.677Z,96.60
2018-05-21T03:38:22.249Z,97.06
2018-05-21T03:40:49.828Z,96.29
2018-05-21T03:43:17.402Z,96.35
2018-05-21T03:45:44.937Z,96.01
2018-05-21T03:48:12.498Z,96.04
2018-05-21T03:50:40.055Z,96.85
2018-05-21T03:53:07.719Z,97.54
2018-05-21T03:55:35.259Z,97.18
2018-05-21T03:58:02.819Z,96.39
2018-05-21T04:00:42.167Z,95.87
2018-05-21T04:03:21.423Z,96.34
2018-05-21T04:05:48.948Z,95.72
2018-05-21T04:08:16.502Z,96.61
2018-05-21T04:10:44.084Z,96.18
2018-05-21T04:13:12.501Z,97.13
2018-05-21T04:15:40.033Z,96.15
2018-05-21T04:18:07.610Z,96.33
2018-05-21T04:20:35.132Z,96.39
2018-05-21T04:23:02.689Z,95.37
2018-05-21T04:25:30.281Z,95.71
2018-05-21T04:27:57.820Z,96.26
2018-05-21T04:30:25.345Z,95.58
2018-05-21T04:32:52.899Z,95.73
2018-05-21T04:35:20.426Z,96.86
2018-05-21T04:37:48.059Z,96.89
2018-05-21T04:40:15.626Z,96.58
2018-05-21T04:42:43.182Z,96.06
2018-05-21T04:45:10.716Z,97.23
2018-05-21T04:47:38.265Z,97.23
2018-05-21T04:50:05.778Z,96.21
2018-05-21T04:52:33.414Z,96.02
2018-05-21T04:55:00.945Z,95.86
2018-05-21T04:57:28.518Z,96.55
2018-05-21T04:59:56.073Z,95.87
2018-05-21T05:02:23.591Z,95.38
2018-05-21T05:04:51.178Z,94.13
2018-05-21T05:07:18.704Z,93.14
2018-05-21T05:09:46.312Z,94.88
2018-05-21T05:12:13.903Z,95.23
2018-05-21T05:14:41.460Z,94.62
2018-05-21T05:17:09.060Z,94.29
2018-05-21T05:19:36.669Z,94.14
2018-05-21T05:22:04.217Z,90.51
2018-05-21T05:24:31.769Z,88.84
2018-05-21T05:26:59.421Z,87.67
2018-05-21T05:29:27.015Z,86.06
2018-05-21T05:31:54.678Z,86.84
2018-05-21T05:34:22.233Z,85.60
2018-05-21T05:36:49.793Z,85.00
2018-05-21T05:39:17.331Z,84.56
2018-05-21T05:41:44.910Z,84.17
2018-05-21T05:44:12.583Z,83.09
2018-05-21T05:46:40.114Z,82.69
2018-05-21T05:49:07.699Z,81.59
2018-05-21T05:51:35.248Z,82.19
2018-05-21T05:54:02.795Z,81.31
2018-05-21T05:56:30.572Z,81.27
2018-05-21T05:58:58.125Z,82.04
2018-05-21T06:01:25.738Z,80.56
2018-05-21T06:03:53.254Z,79.07
2018-05-21T06:06:20.807Z,78.49
2018-05-21T06:08:48.358Z,78.57
2018-05-21T06:11:15.890Z,77.39
2018-05-21T06:13:43.493Z,76.94
2018-05-21T06:16:11.015Z,77.47
2018-05-21T06:18:38.565Z,75.82
2018-05-21T06:21:06.171Z,75.72
2018-05-21T06:23:33.830Z,74.66
2018-05-21T06:26:01.449Z,74.82
2018-05-21T06:28:28.923Z,74.43
2018-05-21T06:30:56.475Z,74.63
2018-05-21T06:33:24.031Z,73.44
2018-05-21T06:35:51.634Z,74.59
2018-05-21T06:38:19.183Z,73.30
2018-05-21T06:40:46.909Z,72.49
2018-05-21T06:43:14.506Z,72.54
2018-05-21T06:45:43.826Z,71.76
2018-05-21T06:48:11.940Z,71.51
2018-05-21T06:50:43.242Z,71.39
2018-05-21T06:53:11.409Z,70.05
2018-05-21T06:55:41.200Z,69.35
2018-05-21T06:58:08.729Z,70.48
2018-05-21T07:00:38.118Z,69.65
2018-05-21T07:03:05.659Z,69.93
2018-05-21T07:05:35.281Z,69.31
2018-05-21T07:08:03.787Z,69.37
2018-05-21T07:10:32.865Z,68.54
2018-05-21T07:13:03.943Z,69.52
2018-05-21T07:15:34.876Z,67.71
2018-05-21T07:18:05.556Z,68.26
2018-05-21T07:20:36.557Z,67.46
2018-05-21T07:23:06.282Z,66.91
2018-05-21T07:25:34.518Z,67.36
2018-05-21T07:28:04.960Z,67.31
2018-05-21T07:30:33.477Z,67.03
2018-05-21T07:33:02.766Z,65.51
2018-05-21T07:35:32.838Z,65.25
2018-05-21T07:38:04.140Z,64.05
2018-05-21T07:40:32.594Z,64.32
2018-05-21T07:43:01.189Z,63.17
2018-05-21T07:45:30.473Z,64.41
2018-05-21T07:48:01.146Z,64.47
2018-05-21T07:50:34.383Z,64.31
2018-05-21T07:53:07.619Z,65.24
2018-05-21T07:55:36.888Z,64.59
2018-05-21T07:58:05.285Z,63.15
2018-05-21T08:00:34.555Z,62.11
2018-05-21T08:03:04.178Z,63.04
2018-05-21T08:05:31.937Z,61.90
2018-05-21T08:07:59.465Z,63.06
2018-05-21T08:10:27.365Z,62.91
2018-05-21T08:12:56.321Z,61.51
2018-05-21T08:15:24.097Z,61.69
2018-05-21T08:17:51.691Z,62.00
2018-05-21T08:20:19.479Z,61.45
2018-05-21T08:22:49.955Z,61.88
2018-05-21T08:25:17.661Z,61.17
2018-05-21T08:27:45.184Z,61.29
2018-05-21T08:30:12.887Z,63.05
2018-05-21T08:32:40.444Z,63.18
2018-05-21T08:35:08.001Z,61.12
2018-05-21T08:37:36.142Z,61.41
2018-05-21T08:40:03.745Z,60.72
2018-05-21T08:42:32.112Z,61.61
2018-05-21T08:45:00.534Z,61.11
2018-05-21T08:47:32.756Z,59.12
2018-05-21T08:50:03.949Z,60.10
2018-05-21T08:52:33.523Z,59.68
2018-05-21T08:55:03.578Z,61.43
2018-05-21T08:57:33.628Z,62.54
2018-05-21T09:00:03.844Z,61.15
2018-05-21T09:02:34.074Z,61.02
2018-05-21T09:05:04.249Z,59.89
2018-05-21T09:07:38.768Z,60.56
2018-05-21T09:10:08.788Z,60.50
2018-05-21T09:12:38.566Z,59.43
2018-05-21T09:15:10.951Z,59.95
2018-05-21T09:17:40.578Z,60.78
2018-05-21T09:20:08.307Z,60.75
2018-05-21T09:22:39.795Z,59.69
2018-05-21T09:25:08.162Z,60.53
2018-05-21T09:27:36.805Z,60.58
2018-05-21T09:30:06.916Z,60.78
2018-05-21T09:32:34.692Z,63.08
2018-05-21T09:35:02.265Z,62.03
2018-05-21T09:37:29.814Z,60.06
2018-05-21T09:39:57.349Z,61.21
2018-05-21T09:42:24.927Z,59.87
2018-05-21T09:44:52.505Z,59.12
2018-05-21T09:47:20.054Z,60.11
2018-05-21T09:49:47.573Z,59.25
2018-05-21T09:52:15.133Z,59.92
2018-05-21T09:54:42.727Z,58.88
2018-05-21T09:57:10.283Z,59.63
2018-05-21T09:59:37.816Z,59.77
2018-05-21T10:02:05.374Z,59.06
2018-05-21T10:04:32.977Z,59.84
2018-05-21T10:07:00.552Z,60.26
2018-05-21T10:09:28.393Z,60.24
2018-05-21T10:11:55.953Z,61.41
2018-05-21T10:14:23.482Z,58.71
2018-05-21T10:16:51.034Z,59.03
2018-05-21T10:19:18.599Z,58.57
2018-05-21T10:21:46.152Z,60.44
2018-05-21T10:24:13.764Z,58.67
2018-05-21T10:26:41.320Z,57.62
2018-05-21T10:29:09.738Z,58.93
2018-05-21T10:31:37.389Z,59.25
2018-05-21T10:34:05.024Z,59.63
2018-05-21T10:36:32.601Z,58.64
2018-05-21T10:39:00.153Z,60.21
2018-05-21T10:41:27.855Z,57.75
2018-05-21T10:43:55.513Z,60.61
2018-05-21T10:46:23.126Z,58.90
2018-05-21T10:48:52.228Z,55.52
2018-05-21T10:51:19.903Z,59.44
2018-05-21T10:53:47.865Z,58.44
2018-05-21T10:56:15.503Z,56.64
2018-05-21T10:58:43.021Z,56.06
2018-05-21T11:01:10.622Z,57.95
2018-05-21T11:03:39.074Z,55.69
2018-05-21T11:06:06.605Z,55.47
2018-05-21T11:08:35.280Z,56.86
2018-05-21T11:11:02.881Z,56.15
2018-05-21T11:13:31.911Z,53.94
2018-05-21T11:15:59.585Z,55.38
2018-05-21T11:18:27.134Z,54.35
2018-05-21T11:20:55.192Z,53.94
2018-05-21T11:23:23.072Z,54.14
2018-05-21T11:25:50.631Z,55.58
2018-05-21T11:28:18.196Z,55.18
2018-05-21T11:30:46.571Z,54.18
2018-05-21T11:33:14.150Z,51.41
2018-05-21T11:35:41.678Z,54.81
2018-05-21T11:38:09.232Z,54.85
2018-05-21T11:40:36.757Z,53.53
2018-05-21T11:43:04.653Z,51.82
2018-05-21T11:45:32.163Z,54.87
2018-05-21T11:47:59.739Z,53.07
2018-05-21T11:50:27.265Z,53.43
2018-05-21T11:52:54.818Z,52.07
2018-05-21T11:55:22.353Z,50.61
2018-05-21T11:57:49.935Z,50.59
2018-05-21T12:00:18.727Z,51.61
2018-05-21T12:02:46.443Z,50.10
2018-05-21T12:05:13.942Z,51.96
2018-05-21T12:07:46.854Z,51.34
2018-05-21T12:10:14.333Z,51.09
2018-05-21T12:12:42.510Z,50.30
2018-05-21T12:15:10.741Z,50.32
2018-05-21T12:17:38.320Z,51.10
2018-05-21T12:20:05.841Z,48.49
2018-05-21T12:22:33.398Z,49.62
2018-05-21T12:25:00.946Z,51.11
2018-05-21T12:27:29.168Z,48.71
2018-05-21T12:29:56.778Z,47.92
2018-05-21T12:32:24.330Z,46.75
2018-05-21T12:34:51.856Z,48.49
2018-05-21T12:37:20.064Z,47.37
2018-05-21T12:39:47.635Z,48.95
2018-05-21T12:42:15.415Z,48.26
2018-05-21T12:44:43.014Z,48.10
2018-05-21T12:47:10.640Z,48.65
2018-05-21T12:49:38.298Z,47.98
2018-05-21T12:52:05.821Z,46.02
2018-05-21T12:54:34.522Z,45.24
2018-05-21T12:57:02.145Z,45.76
2018-05-21T12:59:29.773Z,45.77
2018-05-21T13:01:57.304Z,45.42
2018-05-21T13:04:24.859Z,45.70
2018-05-21T13:06:52.386Z,47.69
2018-05-21T13:09:19.942Z,48.50
2018-05-21T13:11:47.566Z,46.71
2018-05-21T13:14:15.118Z,47.58
2018-05-21T13:16:42.643Z,45.51
2018-05-21T13:19:10.195Z,46.22
2018-05-21T13:21:37.799Z,45.27
2018-05-21T13:24:05.489Z,45.18
2018-05-21T13:26:33.029Z,45.45
2018-05-21T13:29:00.579Z,46.57
2018-05-21T13:31:28.105Z,45.90
2018-05-21T13:34:00.002Z,44.63
2018-05-21T13:36:27.686Z,44.67
2018-05-21T13:38:56.277Z,44.29
2018-05-21T13:41:23.793Z,43.80
2018-05-21T13:43:57.353Z,44.88
2018-05-21T13:46:25.745Z,45.59
2018-05-21T13:49:07.543Z,45.57
2018-05-21T13:51:35.273Z,44.28
2018-05-21T13:54:02.828Z,44.61
2018-05-21T13:56:37.049Z,43.49
2018-05-21T13:59:04.759Z,44.39
2018-05-21T14:01:32.335Z,44.48
2018-05-21T14:04:00.001Z,43.83
2018-05-21T14:06:27.538Z,43.62
2018-05-21T14:08:55.116Z,43.57
2018-05-21T14:11:22.687Z,44.65
2018-05-21T14:13:50.213Z,44.88
2018-05-21T14:16:17.817Z,45.55
2018-05-21T14:18:45.348Z,43.89
2018-05-21T14:21:12.951Z,44.00
2018-05-21T14:23:40.504Z,44.46
2018-05-21T14:26:08.056Z,43.47
2018-05-21T14:28:35.583Z,44.46
2018-05-21T14:31:03.161Z,43.00
2018-05-21T14:33:30.691Z,43.54
2018-05-21T14:35:58.293Z,42.35
2018-05-21T14:38:25.819Z,42.30
2018-05-21T14:40:53.394Z,40.56
2018-05-21T14:43:20.947Z,40.13
2018-05-21T14:45:48.503Z,42.40
2018-05-21T14:48:16.102Z,41.43
2018-05-21T14:50:43.598Z,43.26
2018-05-21T14:53:11.535Z,42.53
2018-05-21T14:55:39.504Z,41.87
2018-05-21T14:58:09.762Z,41.42
2018-05-21T15:00:37.581Z,41.05
2018-05-21T15:03:05.216Z,38.41
2018-05-21T15:05:32.822Z,39.68
2018-05-21T15:08:00.343Z,41.22
2018-05-21T15:10:30.091Z,42.28
2018-05-21T15:13:00.497Z,43.55
2018-05-21T15:15:28.202Z,44.20
2018-05-21T15:17:55.802Z,43.73
2018-05-21T15:20:24.066Z,43.74
2018-05-21T15:22:51.702Z,43.49
2018-05-21T15:25:19.287Z,44.44
2018-05-21T15:27:47.436Z,43.60
2018-05-21T15:30:15.114Z,44.17
2018-05-21T15:32:43.214Z,45.92
2018-05-21T15:35:10.869Z,45.25
2018-05-21T15:37:38.425Z,47.09
2018-05-21T15:40:05.938Z,46.42
2018-05-21T15:42:33.530Z,45.61
2018-05-21T15:45:01.076Z,44.96
2018-05-21T15:47:28.628Z,42.57
2018-05-21T15:49:56.157Z,45.66
2018-05-21T15:52:23.709Z,43.32
2018-05-21T15:54:51.336Z,44.13
2018-05-21T15:57:18.891Z,45.17
2018-05-21T15:59:47.290Z,43.50
2018-05-21T16:02:14.872Z,44.06
2018-05-21T16:04:43.358Z,43.51
2018-05-21T16:07:10.921Z,43.74
2018-05-21T16:09:38.530Z,42.63
2018-05-21T16:12:06.077Z,43.13
2018-05-21T16:14:33.654Z,42.11
2018-05-21T16:17:01.202Z,42.43
2018-05-21T16:19:28.766Z,40.32
2018-05-21T16:21:56.672Z,39.81
2018-05-21T16:24:24.409Z,40.13
2018-05-21T16:26:52.164Z,39.62
2018-05-21T16:29:19.810Z,38.95
2018-05-21T16:31:47.486Z,37.06
2018-05-21T16:34:15.247Z,36.39
2018-05-21T16:36:43.499Z,36.61
2018-05-21T16:39:11.086Z,38.31
2018-05-21T16:41:38.655Z,35.59
2018-05-21T16:44:06.178Z,37.13
2018-05-21T16:46:33.779Z,36.89
2018-05-21T16:49:01.337Z,33.92
2018-05-21T16:51:28.987Z,30.29
2018-05-21T16:53:56.743Z,28.80
2018-05-21T16:56:24.239Z,27.84
2018-05-21T16:58:51.766Z,29.96
2018-05-21T17:01:19.353Z,31.67
2018-05-21T17:03:46.996Z,28.55
2018-05-21T17:06:14.551Z,30.57
2018-05-21T17:08:43.229Z,30.20
2018-05-21T17:11:10.798Z,30.22
2018-05-21T17:13:38.460Z,27.97
2018-05-21T17:16:06.009Z,29.17
2018-05-21T17:18:33.584Z,28.92
2018-05-21T17:21:01.130Z,31.71
2018-05-21T17:23:28.686Z,35.45
2018-05-21T17:25:56.221Z,36.04
2018-05-21T17:28:23.819Z,33.38
2018-05-21T17:30:51.417Z,32.79
2018-05-21T17:33:19.027Z,32.06
2018-05-21T17:35:46.603Z,30.40
2018-05-21T17:38:14.236Z,32.52
2018-05-21T17:40:41.807Z,29.96
2018-05-21T17:43:09.377Z,30.86
2018-05-21T17:45:36.934Z,30.33
2018-05-21T17:48:04.537Z,29.69
2018-05-21T17:50:32.087Z,29.89
2018-05-21T17:52:59.708Z,31.73
2018-05-21T17:55:27.245Z,31.50
2018-05-21T17:57:54.839Z,32.16
2018-05-21T18:00:22.372Z,37.16
2018-05-21T18:02:49.948Z,38.49
2018-05-21T18:05:17.504Z,42.68
2018-05-21T18:07:45.167Z,42.90
2018-05-21T18:10:12.677Z,43.05
2018-05-21T18:12:40.233Z,45.11
2018-05-21T18:15:07.910Z,45.59
2018-05-21T18:17:36.310Z,48.73
2018-05-21T18:20:04.759Z,49.04
2018-05-21T18:22:33.352Z,51.19
2018-05-21T18:25:01.799Z,51.29
2018-05-21T18:27:30.479Z,52.04
2018-05-21T18:29:58.250Z,52.45
2018-05-21T18:32:26.187Z,54.40
2018-05-21T18:34:54.778Z,55.52
2018-05-21T18:37:22.305Z,57.32
2018-05-21T18:39:49.889Z,59.68
2018-05-21T18:42:25.767Z,59.67
2018-05-21T18:45:06.347Z,60.41
2018-05-21T18:47:40.237Z,61.52
2018-05-21T18:50:09.279Z,60.98
2018-05-21T18:52:42.198Z,62.99
2018-05-21T18:55:10.221Z,63.26
2018-05-21T18:57:37.747Z,65.14
2018-05-21T19:00:05.310Z,66.71
2018-05-21T19:02:32.855Z,67.95
2018-05-21T19:05:00.405Z,67.21
2018-05-21T19:07:27.937Z,68.46
2018-05-21T19:09:56.634Z,69.10
2018-05-21T19:12:24.193Z,70.06
2018-05-21T19:14:51.768Z,72.12
2018-05-21T19:17:19.532Z,70.07
2018-05-21T19:19:48.521Z,69.36
2018-05-21T19:22:16.184Z,70.11
2018-05-21T19:24:44.279Z,70.50
2018-05-21T19:27:14.903Z,70.68
2018-05-21T19:29:43.174Z,71.67
2018-05-21T19:32:11.107Z,72.92
2018-05-21T19:34:38.690Z,72.53
2018-05-21T19:37:06.251Z,72.65
2018-05-21T19:39:33.839Z,73.33
2018-05-21T19:42:01.501Z,72.56
2018-05-21T19:44:29.057Z,71.62
2018-05-21T19:46:57.491Z,71.77
2018-05-21T19:49:31.831Z,72.32
2018-05-21T19:51:59.624Z,72.20
2018-05-21T19:54:27.618Z,73.12
2018-05-21T19:56:55.202Z,73.45
2018-05-21T19:59:22.762Z,73.11
2018-05-21T20:01:50.266Z,73.38
2018-05-21T20:04:17.809Z,73.75
2018-05-21T20:06:45.333Z,74.96
2018-05-21T20:09:12.918Z,74.91
2018-05-21T20:11:40.464Z,74.52
2018-05-21T20:14:08.017Z,74.67
2018-05-21T20:16:35.541Z,75.69
2018-05-21T20:19:03.097Z,76.76
2018-05-21T20:21:30.696Z,76.47
2018-05-21T20:23:58.278Z,75.68
2018-05-21T20:26:25.783Z,76.27
2018-05-21T20:28:53.600Z,76.26
2018-05-21T20:31:21.255Z,77.39
2018-05-21T20:33:49.237Z,78.63
2018-05-21T20:36:16.806Z,78.83
2018-05-21T20:38:46.040Z,78.20
2018-05-21T20:41:13.843Z,77.63
2018-05-21T20:43:41.370Z,78.96
2018-05-21T20:46:08.925Z,79.94
2018-05-21T20:48:36.447Z,79.47
2018-05-21T20:51:04.002Z,80.72
2018-05-21T20:53:31.554Z,80.48
2018-05-21T20:55:59.104Z,79.62
2018-05-21T20:58:26.743Z,79.29
2018-05-21T21:00:56.427Z,80.47
2018-05-21T21:03:24.461Z,80.94
2018-05-21T21:05:52.037Z,79.26
2018-05-21T21:08:19.643Z,80.94
2018-05-21T21:10:47.194Z,80.38
2018-05-21T21:13:14.719Z,80.95
2018-05-21T21:15:42.271Z,81.21
2018-05-21T21:18:09.804Z,82.28
2018-05-21T21:20:37.425Z,84.51
2018-05-21T21:23:04.949Z,84.23
2018-05-21T21:25:32.584Z,84.99
2018-05-21T21:28:00.148Z,84.82
2018-05-21T21:30:27.683Z,83.51
2018-05-21T21:32:55.254Z,84.49
2018-05-21T21:35:22.790Z,85.03
2018-05-21T21:37:50.308Z,84.60
2018-05-21T21:40:17.894Z,84.49
2018-05-21T21:42:45.500Z,82.11
2018-05-21T21:45:13.263Z,79.50
2018-05-21T21:47:40.825Z,78.11
2018-05-21T21:50:08.456Z,78.10
2018-05-21T21:52:35.981Z,78.87
2018-05-21T21:55:03.611Z,83.31
2018-05-21T21:57:31.134Z,80.52
2018-05-21T21:59:58.685Z,83.20
2018-05-21T22:02:26.215Z,83.32
2018-05-21T22:04:53.743Z,84.94
2018-05-21T22:07:21.286Z,84.86
2018-05-21T22:09:51.667Z,85.60
2018-05-21T22:12:19.583Z,85.02
2018-05-21T22:14:47.402Z,87.43
2018-05-21T22:17:15.029Z,88.02
2018-05-21T22:19:42.532Z,87.32
2018-05-21T22:22:10.080Z,87.06
2018-05-21T22:24:37.743Z,86.80
2018-05-21T22:27:05.310Z,86.73
2018-05-21T22:29:32.866Z,84.68
2018-05-21T22:32:00.401Z,84.84
2018-05-21T22:34:28.011Z,85.81
2018-05-21T22:36:55.702Z,84.96
2018-05-21T22:39:23.346Z,84.72
2018-05-21T22:41:50.925Z,84.83
2018-05-21T22:44:18.522Z,85.27
2018-05-21T22:46:46.148Z,88.21
2018-05-21T22:49:13.705Z,87.79
2018-05-21T22:51:41.281Z,88.98
2018-05-21T22:54:08.811Z,88.37
2018-05-21T22:56:36.359Z,87.97
2018-05-21T22:59:03.972Z,87.48
2018-05-21T23:01:31.541Z,86.15
2018-05-21T23:03:59.138Z,86.45
2018-05-21T23:06:26.693Z,86.35
2018-05-21T23:08:54.275Z,86.94
2018-05-21T23:11:21.827Z,87.80
2018-05-21T23:13:49.394Z,86.45
2018-05-21T23:16:17.854Z,85.59
2018-05-21T23:18:45.380Z,86.27
2018-05-21T23:21:12.937Z,85.39
2018-05-21T23:23:42.759Z,85.60
2018-05-21T23:26:12.742Z,85.48
2018-05-21T23:28:43.081Z,84.76
2018-05-21T23:31:11.347Z,85.84
2018-05-21T23:33:39.040Z,86.88
2018-05-21T23:36:06.915Z,86.78
2018-05-21T23:38:35.014Z,88.14
2018-05-21T23:41:03.166Z,89.66
2018-05-21T23:43:32.054Z,89.89
2018-05-21T23:45:59.957Z,91.32
2018-05-21T23:48:27.506Z,90.22
2018-05-21T23:50:55.334Z,91.23
2018-05-21T23:53:22.944Z,90.42
2018-05-21T23:55:50.511Z,90.54
2018-05-21T23:58:21.711Z,88.43
